Akron, Michigan
Current Conditions -  °F | °C
As of 7:35 PM on Tuesday 21 Oct 2014 (Local Time) from KCFS Reporting Station
Overcast Overcast  
Wind Chill: 38°   Ceiling: 2600
Heat Index: 43°   Visibility: 10mi
Dew Point: 36°   Wind: 9mph
Humidity: 75%   Direction: 10°N
Pressure: 30.2"   Gusts: NA
Location:  43.57°N, 83.51°W
Report Text: KCFS 212335Z AUTO 01008KT 10SM OVC026 06/02 A3020 RMK AO2 T00610020
Loading
Personal Weather Stations






























Interactive Weather Map
Tropical Storm Tracking
New forecast layout! Learn more

10-Day Weather Forecast

Advertisements
Track Severe Weather on mobile